Time,TemperatureF,DewpointF,PressureIn,WindDirection,WindDirectionDegrees,WindSpeedMPH,WindSpeedGustMPH,Humidity,HourlyPrecipIn,Conditions,Clouds,dailyrainin,SoftwareType,DateUTC
2013-01-31 06:02:00,30.0,26.0,-100.00,SE,133,0.0,0.0,85,-99.99,,,-99.99,,2013-01-31 14:02:00,
2013-01-31 06:11:00,30.0,26.0,-100.00,SE,138,0.0,0.0,85,-99.99,,,-99.99,,2013-01-31 14:11:00,
2013-01-31 06:21:00,30.0,26.0,-100.00,SE,140,0.0,0.0,85,-99.99,,,-99.99,,2013-01-31 14:21:00,
2013-01-31 06:31:00,30.0,26.0,-100.00,SE,140,0.0,0.0,85,-99.99,,,-99.99,,2013-01-31 14:31:00,
2013-01-31 06:42:00,30.0,25.0,-100.00,SE,128,0.0,0.0,83,-99.99,,,-99.99,,2013-01-31 14:42:00,
2013-01-31 06:52:00,30.0,26.0,-100.00,ESE,120,3.0,4.0,85,-99.99,,,-99.99,,2013-01-31 14:52:00,
2013-01-31 07:02:00,30.0,25.0,-100.00,ESE,116,3.0,4.0,81,-99.99,,,-99.99,,2013-01-31 15:02:00,
2013-01-31 07:11:00,30.0,23.0,-100.00,ESE,119,4.0,5.0,77,-99.99,,,-99.99,,2013-01-31 15:11:00,
2013-01-31 07:22:00,30.0,24.0,-100.00,ESE,110,3.0,4.0,77,-99.99,,,-99.99,,2013-01-31 15:22:00,
2013-01-31 07:32:00,30.0,24.0,-100.00,ESE,117,3.0,4.0,78,-99.99,,,-99.99,,2013-01-31 15:32:00,
2013-01-31 07:42:00,30.0,25.0,-100.00,ESE,123,4.0,5.0,80,-99.99,,,-99.99,,2013-01-31 15:42:00,
2013-01-31 07:51:00,30.0,25.0,-100.00,SE,124,4.0,5.0,82,-99.99,,,-99.99,,2013-01-31 15:51:00,
2013-01-31 08:03:00,30.0,25.0,-100.00,SE,124,4.0,5.0,82,-99.99,,,-99.99,,2013-01-31 16:03:00,
2013-01-31 08:12:00,30.0,25.0,-100.00,SE,133,3.0,4.0,83,-99.99,,,-99.99,,2013-01-31 16:12:00,
2013-01-31 08:21:00,30.0,25.0,-100.00,SE,133,3.0,4.0,83,-99.99,,,-99.99,,2013-01-31 16:21:00,
2013-01-31 08:32:00,30.0,25.0,-100.00,SE,133,3.0,4.0,83,-99.99,,,-99.99,,2013-01-31 16:32:00,
2013-01-31 08:41:00,30.0,25.0,-100.00,SE,128,3.0,4.0,82,-99.99,,,-99.99,,2013-01-31 16:41:00,
2013-01-31 08:52:00,30.0,26.0,-100.00,South,176,0.0,0.0,84,-99.99,,,-99.99,,2013-01-31 16:52:00,
2013-01-31 09:02:00,30.0,25.0,-100.00,SE,133,2.0,2.0,83,-99.99,,,-99.99,,2013-01-31 17:02:00,
2013-01-31 09:12:00,30.0,26.0,-100.00,SE,127,0.0,0.0,84,-99.99,,,-99.99,,2013-01-31 17:12:00,
2013-01-31 09:22:00,30.0,26.0,-100.00,SE,131,2.0,2.0,84,-99.99,,,-99.99,,2013-01-31 17:22:00,
2013-01-31 09:31:00,30.0,26.0,-100.00,SE,143,1.0,2.0,84,-99.99,,,-99.99,,2013-01-31 17:31:00,
2013-01-31 09:43:00,30.0,26.0,-100.00,SE,143,1.0,2.0,84,-99.99,,,-99.99,,2013-01-31 17:43:00,
2013-01-31 09:53:00,31.0,27.0,-100.00,East,88,0.0,0.0,85,-99.99,,,-99.99,,2013-01-31 17:53:00,
2013-01-31 10:02:00,31.0,26.0,-100.00,East,82,0.0,0.0,83,-99.99,,,-99.99,,2013-01-31 18:02:00,
2013-01-31 10:12:00,31.0,26.0,-100.00,South,174,0.0,0.0,82,-99.99,,,-99.99,,2013-01-31 18:12:00,
2013-01-31 10:21:00,32.0,27.0,-100.00,SW,230,0.0,0.0,81,-99.99,,,-99.99,,2013-01-31 18:21:00,
2013-01-31 10:32:00,32.0,27.0,-100.00,SW,230,0.0,0.0,81,-99.99,,,-99.99,,2013-01-31 18:32:00,
2013-01-31 10:42:00,35.0,28.0,-100.00,West,268,0.0,2.0,76,-99.99,,,-99.99,,2013-01-31 18:42:00,
2013-01-31 10:52:00,35.0,29.0,-100.00,West,270,0.0,0.0,76,-99.99,,,-99.99,,2013-01-31 18:52:00,
2013-01-31 11:02:00,35.0,29.0,-100.00,West,270,0.0,0.0,76,-99.99,,,-99.99,,2013-01-31 19:02:00,
2013-01-31 11:11:00,35.0,29.0,-100.00,SW,236,0.0,0.0,77,-99.99,,,-99.99,,2013-01-31 19:11:00,
2013-01-31 11:21:00,36.0,29.0,-100.00,SW,227,0.0,2.0,77,-99.99,,,-99.99,,2013-01-31 19:21:00,
2013-01-31 11:32:00,36.0,29.0,-100.00,SW,233,0.0,2.0,77,-99.99,,,-99.99,,2013-01-31 19:32:00,
2013-01-31 11:42:00,36.0,30.0,-100.00,WNW,289,0.0,0.0,77,-99.99,,,-99.99,,2013-01-31 19:42:00,
2013-01-31 11:51:00,37.0,30.0,-100.00,West,270,0.0,0.0,74,-99.99,,,-99.99,,2013-01-31 19:51:00,
2013-01-31 12:02:00,37.0,30.0,-100.00,SW,224,1.0,4.0,74,-99.99,,,-99.99,,2013-01-31 20:02:00,
2013-01-31 12:11:00,38.0,30.0,-100.00,West,261,0.0,0.0,72,-99.99,,,-99.99,,2013-01-31 20:11:00,
2013-01-31 12:21:00,37.0,30.0,-100.00,SSW,209,0.0,0.0,74,-99.99,,,-99.99,,2013-01-31 20:21:00,
2013-01-31 12:31:00,37.0,30.0,-100.00,SSW,209,0.0,0.0,74,-99.99,,,-99.99,,2013-01-31 20:31:00,
2013-01-31 12:41:00,39.0,30.0,-100.00,WNW,295,0.0,0.0,70,-99.99,,,-99.99,,2013-01-31 20:41:00,
2013-01-31 12:52:00,39.0,30.0,-100.00,WNW,302,0.0,0.0,71,-99.99,,,-99.99,,2013-01-31 20:52:00,
2013-01-31 13:02:00,40.0,30.0,-100.00,NW,311,0.0,0.0,69,-99.99,,,-99.99,,2013-01-31 21:02:00,
2013-01-31 13:11:00,40.0,29.0,-100.00,ENE,71,0.0,0.0,65,-99.99,,,-99.99,,2013-01-31 21:11:00,
2013-01-31 13:21:00,40.0,30.0,-100.00,West,263,0.0,0.0,67,-99.99,,,-99.99,,2013-01-31 21:21:00,
2013-01-31 13:31:00,41.0,30.0,-100.00,NW,306,0.0,0.0,65,-99.99,,,-99.99,,2013-01-31 21:31:00,
2013-01-31 13:42:00,41.0,30.0,-100.00,NW,313,0.0,0.0,64,-99.99,,,-99.99,,2013-01-31 21:42:00,
2013-01-31 13:52:00,41.0,30.0,-100.00,NW,305,0.0,0.0,66,-99.99,,,-99.99,,2013-01-31 21:52:00,
2013-01-31 14:02:00,41.0,30.0,-100.00,WNW,292,0.0,0.0,66,-99.99,,,-99.99,,2013-01-31 22:02:00,
2013-01-31 14:11:00,41.0,31.0,-100.00,WNW,302,0.0,0.0,66,-99.99,,,-99.99,,2013-01-31 22:11:00,
2013-01-31 14:22:00,41.0,31.0,-100.00,WNW,301,0.0,0.0,65,-99.99,,,-99.99,,2013-01-31 22:22:00,
2013-01-31 14:32:00,41.0,31.0,-100.00,NW,318,0.0,0.0,66,-99.99,,,-99.99,,2013-01-31 22:32:00,
2013-01-31 14:42:00,42.0,31.0,-100.00,NW,304,0.0,0.0,65,-99.99,,,-99.99,,2013-01-31 22:42:00,
2013-01-31 14:51:00,42.0,31.0,-100.00,WSW,251,1.0,4.0,66,-99.99,,,-99.99,,2013-01-31 22:51:00,
2013-01-31 15:02:00,42.0,29.0,-100.00,ENE,68,0.0,0.0,59,-99.99,,,-99.99,,2013-01-31 23:02:00,
2013-01-31 15:12:00,43.0,27.0,-100.00,SSW,199,1.0,3.0,53,-99.99,,,-99.99,,2013-01-31 23:12:00,
2013-01-31 15:21:00,43.0,30.0,-100.00,SSE,150,1.0,3.0,60,-99.99,,,-99.99,,2013-01-31 23:21:00,
2013-01-31 15:31:00,43.0,30.0,-100.00,SSE,150,1.0,3.0,60,-99.99,,,-99.99,,2013-01-31 23:31:00,
2013-01-31 15:41:00,43.0,28.0,-100.00,SSW,193,3.0,7.0,55,-99.99,,,-99.99,,2013-01-31 23:41:00,
2013-01-31 15:52:00,44.0,26.0,-100.00,SW,226,3.0,6.0,50,-99.99,,,-99.99,,2013-01-31 23:52:00,
2013-01-31 16:01:00,44.0,29.0,-100.00,South,191,2.0,6.0,55,-99.99,,,-99.99,,2013-02-01 00:01:00,
2013-01-31 16:11:00,44.0,32.0,-100.00,ESE,109,1.0,3.0,62,-99.99,,,-99.99,,2013-02-01 00:11:00,
2013-01-31 16:21:00,44.0,32.0,-100.00,ESE,109,1.0,3.0,62,-99.99,,,-99.99,,2013-02-01 00:21:00,
2013-01-31 16:31:00,43.0,29.0,-100.00,South,169,0.0,0.0,57,-99.99,,,-99.99,,2013-02-01 00:31:00,
2013-01-31 16:42:00,43.0,29.0,-100.00,NNE,21,0.0,0.0,57,-99.99,,,-99.99,,2013-02-01 00:42:00,
2013-01-31 16:52:00,41.0,23.0,-100.00,ENE,75,2.0,3.0,47,-99.99,,,-99.99,,2013-02-01 00:52:00,
2013-01-31 17:01:00,45.0,19.0,-100.00,ESE,116,2.0,4.0,35,-99.99,,,-99.99,,2013-02-01 01:01:00,
2013-01-31 17:11:00,44.0,21.0,-100.00,East,95,0.0,0.0,39,-99.99,,,-99.99,,2013-02-01 01:11:00,
2013-01-31 17:21:00,44.0,20.0,-100.00,SE,143,0.0,0.0,37,-99.99,,,-99.99,,2013-02-01 01:21:00,
2013-01-31 17:31:00,44.0,17.0,-100.00,SE,126,0.0,0.0,33,-99.99,,,-99.99,,2013-02-01 01:31:00,
2013-01-31 17:41:00,44.0,15.0,-100.00,SE,138,3.0,5.0,31,-99.99,,,-99.99,,2013-02-01 01:41:00,
2013-01-31 17:51:00,43.0,19.0,-100.00,ESE,116,1.0,3.0,37,-99.99,,,-99.99,,2013-02-01 01:51:00,
2013-01-31 18:01:00,43.0,18.0,-100.00,SE,133,2.0,5.0,37,-99.99,,,-99.99,,2013-02-01 02:01:00,
2013-01-31 18:11:00,42.0,19.0,-100.00,ESE,106,4.0,6.0,38,-99.99,,,-99.99,,2013-02-01 02:11:00,
2013-01-31 18:21:00,41.0,19.0,-100.00,East,88,3.0,5.0,40,-99.99,,,-99.99,,2013-02-01 02:21:00,
2013-01-31 18:31:00,42.0,19.0,-100.00,East,99,3.0,5.0,40,-99.99,,,-99.99,,2013-02-01 02:31:00,
2013-01-31 18:41:00,41.0,20.0,-100.00,ESE,107,3.0,5.0,41,-99.99,,,-99.99,,2013-02-01 02:41:00,
2013-01-31 18:52:00,41.0,20.0,-100.00,ESE,107,3.0,5.0,42,-99.99,,,-99.99,,2013-02-01 02:52:00,
2013-01-31 19:01:00,40.0,22.0,-100.00,ESE,109,4.0,5.0,49,-99.99,,,-99.99,,2013-02-01 03:01:00,
2013-01-31 19:11:00,39.0,22.0,-100.00,ESE,113,3.0,5.0,50,-99.99,,,-99.99,,2013-02-01 03:11:00,
2013-01-31 19:21:00,39.0,23.0,-100.00,East,100,0.0,3.0,52,-99.99,,,-99.99,,2013-02-01 03:21:00,
2013-01-31 19:32:00,40.0,23.0,-100.00,SE,134,4.0,4.0,51,-99.99,,,-99.99,,2013-02-01 03:32:00,
2013-01-31 19:41:00,38.0,24.0,-100.00,ESE,112,4.0,6.0,57,-99.99,,,-99.99,,2013-02-01 03:41:00,
2013-01-31 19:51:00,39.0,23.0,-100.00,ESE,119,4.0,6.0,52,-99.99,,,-99.99,,2013-02-01 03:51:00,
2013-01-31 20:02:00,39.0,23.0,-100.00,ESE,119,4.0,6.0,52,-99.99,,,-99.99,,2013-02-01 04:02:00,
2013-01-31 20:11:00,38.0,23.0,-100.00,ESE,123,4.0,5.0,54,-99.99,,,-99.99,,2013-02-01 04:11:00,
2013-01-31 20:21:00,38.0,23.0,-100.00,ESE,120,4.0,5.0,55,-99.99,,,-99.99,,2013-02-01 04:21:00,
2013-01-31 20:31:00,38.0,23.0,-100.00,ESE,120,4.0,5.0,55,-99.99,,,-99.99,,2013-02-01 04:31:00,
2013-01-31 20:41:00,38.0,23.0,-100.00,ESE,120,4.0,5.0,55,-99.99,,,-99.99,,2013-02-01 04:41:00,
2013-01-31 20:51:00,38.0,23.0,-100.00,ESE,120,4.0,5.0,55,-99.99,,,-99.99,,2013-02-01 04:51:00,
2013-01-31 21:03:00,37.0,19.0,-100.00,ESE,119,4.0,5.0,49,-99.99,,,-99.99,,2013-02-01 05:03:00,
2013-01-31 21:11:00,36.0,19.0,-100.00,SE,127,5.0,5.0,49,-99.99,,,-99.99,,2013-02-01 05:11:00,
2013-01-31 21:22:00,37.0,19.0,-100.00,SE,128,5.0,6.0,48,-99.99,,,-99.99,,2013-02-01 05:22:00,
2013-01-31 21:31:00,36.0,20.0,-100.00,ENE,69,1.0,2.0,52,-99.99,,,-99.99,,2013-02-01 05:31:00,
2013-01-31 21:41:00,36.0,16.0,-100.00,ESE,120,4.0,5.0,44,-99.99,,,-99.99,,2013-02-01 05:41:00,
2013-01-31 21:52:00,36.0,15.0,-100.00,ESE,113,3.0,4.0,42,-99.99,,,-99.99,,2013-02-01 05:52:00,
2013-01-31 22:02:00,36.0,15.0,-100.00,ESE,117,4.0,5.0,42,-99.99,,,-99.99,,2013-02-01 06:02:00,
2013-01-31 22:11:00,36.0,16.0,-100.00,ESE,119,4.0,5.0,44,-99.99,,,-99.99,,2013-02-01 06:11:00,
2013-01-31 22:21:00,36.0,13.0,-100.00,ESE,116,3.0,4.0,39,-99.99,,,-99.99,,2013-02-01 06:21:00,
2013-01-31 22:32:00,35.0,18.0,-100.00,SE,145,1.0,2.0,50,-99.99,,,-99.99,,2013-02-01 06:32:00,
2013-01-31 22:41:00,35.0,14.0,-100.00,SE,130,3.0,4.0,41,-99.99,,,-99.99,,2013-02-01 06:41:00,
2013-01-31 22:52:00,35.0,17.0,-100.00,SE,124,3.0,4.0,47,-99.99,,,-99.99,,2013-02-01 06:52:00,
2013-01-31 23:01:00,34.0,23.0,-100.00,SSE,158,1.0,3.0,63,-99.99,,,-99.99,,2013-02-01 07:01:00,
2013-01-31 23:11:00,34.0,22.0,-100.00,SE,127,3.0,4.0,60,-99.99,,,-99.99,,2013-02-01 07:11:00,
2013-01-31 23:21:00,34.0,18.0,-100.00,ESE,114,4.0,4.0,52,-99.99,,,-99.99,,2013-02-01 07:21:00,
2013-01-31 23:32:00,34.0,21.0,-100.00,SE,124,4.0,4.0,59,-99.99,,,-99.99,,2013-02-01 07:32:00,
2013-01-31 23:41:00,34.0,22.0,-100.00,ESE,117,3.0,4.0,62,-99.99,,,-99.99,,2013-02-01 07:41:00,
2013-01-31 23:51:00,34.0,21.0,-100.00,ESE,114,3.0,4.0,59,-99.99,,,-99.99,,2013-02-01 07:51:00,